sensor_id;sensor_type;location;lat;lon;timestamp;pressure;altitude;pressure_sealevel;temperature;humidity
69219;BME280;56232;53.384;-2.732;2023-02-01T00:00:12;101828.14;;;5.73;42.80
69219;BME280;56232;53.384;-2.732;2023-02-01T00:02:32;101825.93;;;5.49;43.10
69219;BME280;56232;53.384;-2.732;2023-02-01T00:04:58;101830.69;;;5.64;42.36
69219;BME280;56232;53.384;-2.732;2023-02-01T00:07:24;101835.00;;;6.23;42.62
69219;BME280;56232;53.384;-2.732;2023-02-01T00:09:49;101829.11;;;5.62;42.44
69219;BME280;56232;53.384;-2.732;2023-02-01T00:12:14;101837.30;;;5.56;42.69
69219;BME280;56232;53.384;-2.732;2023-02-01T00:14:40;101843.35;;;5.78;42.76
69219;BME280;56232;53.384;-2.732;2023-02-01T00:17:06;101838.86;;;6.57;42.39
69219;BME280;56232;53.384;-2.732;2023-02-01T00:19:31;101839.82;;;5.59;42.25
69219;BME280;56232;53.384;-2.732;2023-02-01T00:21:56;101834.37;;;5.93;42.02
69219;BME280;56232;53.384;-2.732;2023-02-01T00:24:22;101836.40;;;6.55;41.68
69219;BME280;56232;53.384;-2.732;2023-02-01T00:26:48;101831.11;;;6.05;41.86
69219;BME280;56232;53.384;-2.732;2023-02-01T00:29:15;101845.32;;;6.50;42.12
69219;BME280;56232;53.384;-2.732;2023-02-01T00:31:39;101826.78;;;6.52;41.80
69219;BME280;56232;53.384;-2.732;2023-02-01T00:34:05;101826.64;;;5.97;41.93
69219;BME280;56232;53.384;-2.732;2023-02-01T00:36:30;101822.80;;;6.00;42.21
69219;BME280;56232;53.384;-2.732;2023-02-01T00:38:56;101821.38;;;6.12;41.61
69219;BME280;56232;53.384;-2.732;2023-02-01T00:41:22;101811.61;;;6.32;42.02
69219;BME280;56232;53.384;-2.732;2023-02-01T00:43:47;101808.48;;;6.51;42.15
69219;BME280;56232;53.384;-2.732;2023-02-01T00:46:14;101795.39;;;5.88;41.66
69219;BME280;56232;53.384;-2.732;2023-02-01T00:48:39;101807.14;;;5.84;42.11
69219;BME280;56232;53.384;-2.732;2023-02-01T00:51:06;101806.77;;;5.73;41.89
69219;BME280;56232;53.384;-2.732;2023-02-01T00:53:29;101804.00;;;6.09;42.19
69219;BME280;56232;53.384;-2.732;2023-02-01T00:55:55;101807.52;;;6.18;41.84
69219;BME280;56232;53.384;-2.732;2023-02-01T00:58:21;101806.79;;;6.03;42.65
69219;BME280;56232;53.384;-2.732;2023-02-01T01:01:01;101805.22;;;5.52;42.68
69219;BME280;56232;53.384;-2.732;2023-02-01T01:03:12;101802.78;;;6.10;42.54
69219;BME280;56232;53.384;-2.732;2023-02-01T01:05:37;101803.05;;;6.08;42.52
69219;BME280;56232;53.384;-2.732;2023-02-01T01:08:03;101801.73;;;5.55;42.67
69219;BME280;56232;53.384;-2.732;2023-02-01T01:10:28;101799.08;;;5.84;42.53
69219;BME280;56232;53.384;-2.732;2023-02-01T01:12:58;101798.47;;;5.74;42.71
69219;BME280;56232;53.384;-2.732;2023-02-01T01:15:20;101803.75;;;5.44;42.98
69219;BME280;56232;53.384;-2.732;2023-02-01T01:17:44;101799.11;;;5.70;43.34
69219;BME280;56232;53.384;-2.732;2023-02-01T01:20:11;101804.37;;;5.13;43.41
69219;BME280;56232;53.384;-2.732;2023-02-01T01:22:35;101798.70;;;5.24;43.46
69219;BME280;56232;53.384;-2.732;2023-02-01T01:25:01;101791.69;;;6.07;43.34
69219;BME280;56232;53.384;-2.732;2023-02-01T01:27:27;101789.83;;;6.12;43.03
69219;BME280;56232;53.384;-2.732;2023-02-01T01:29:52;101785.19;;;5.94;42.86
69219;BME280;56232;53.384;-2.732;2023-02-01T01:32:18;101789.39;;;4.92;43.37
69219;BME280;56232;53.384;-2.732;2023-02-01T01:34:43;101788.01;;;4.81;43.52
69219;BME280;56232;53.384;-2.732;2023-02-01T01:37:09;101789.66;;;4.80;43.38
69219;BME280;56232;53.384;-2.732;2023-02-01T01:39:34;101782.18;;;5.51;43.38
69219;BME280;56232;53.384;-2.732;2023-02-01T01:42:00;101785.83;;;5.09;43.23
69219;BME280;56232;53.384;-2.732;2023-02-01T01:46:51;101769.15;;;4.72;43.05
69219;BME280;56232;53.384;-2.732;2023-02-01T01:49:21;101769.70;;;5.23;43.23
69219;BME280;56232;53.384;-2.732;2023-02-01T01:51:45;101766.94;;;5.17;42.66
69219;BME280;56232;53.384;-2.732;2023-02-01T01:54:12;101770.48;;;5.52;42.75
69219;BME280;56232;53.384;-2.732;2023-02-01T01:56:34;101770.45;;;5.28;43.10
69219;BME280;56232;53.384;-2.732;2023-02-01T01:58:59;101768.26;;;5.27;42.81
69219;BME280;56232;53.384;-2.732;2023-02-01T02:01:24;101777.58;;;4.61;43.21
69219;BME280;56232;53.384;-2.732;2023-02-01T02:03:51;101777.84;;;5.24;43.21
69219;BME280;56232;53.384;-2.732;2023-02-01T02:06:23;101776.08;;;4.98;43.57
69219;BME280;56232;53.384;-2.732;2023-02-01T02:08:41;101777.54;;;4.99;43.28
69219;BME280;56232;53.384;-2.732;2023-02-01T02:11:07;101781.05;;;4.10;43.37
69219;BME280;56232;53.384;-2.732;2023-02-01T02:13:36;101778.19;;;5.43;43.45
69219;BME280;56232;53.384;-2.732;2023-02-01T02:16:09;101772.74;;;5.15;42.93
69219;BME280;56232;53.384;-2.732;2023-02-01T02:18:27;101771.07;;;5.81;42.82
69219;BME280;56232;53.384;-2.732;2023-02-01T02:21:02;101776.37;;;5.82;43.13
69219;BME280;56232;53.384;-2.732;2023-02-01T02:23:26;101773.26;;;4.92;42.88
69219;BME280;56232;53.384;-2.732;2023-02-01T02:28:15;101778.84;;;6.46;42.07
69219;BME280;56232;53.384;-2.732;2023-02-01T02:30:49;101782.40;;;5.85;41.95
69219;BME280;56232;53.384;-2.732;2023-02-01T02:35:28;101774.67;;;5.89;42.19
69219;BME280;56232;53.384;-2.732;2023-02-01T02:37:53;101778.86;;;5.44;42.13
69219;BME280;56232;53.384;-2.732;2023-02-01T02:40:16;101778.22;;;6.66;42.01
69219;BME280;56232;53.384;-2.732;2023-02-01T02:42:50;101772.34;;;5.95;42.28
69219;BME280;56232;53.384;-2.732;2023-02-01T02:45:08;101767.59;;;5.84;42.25
69219;BME280;56232;53.384;-2.732;2023-02-01T02:47:34;101772.01;;;5.70;42.62
69219;BME280;56232;53.384;-2.732;2023-02-01T02:49:59;101777.05;;;5.56;42.42
69219;BME280;56232;53.384;-2.732;2023-02-01T02:52:21;101769.86;;;6.15;42.32
69219;BME280;56232;53.384;-2.732;2023-02-01T02:54:47;101768.44;;;5.66;42.46
69219;BME280;56232;53.384;-2.732;2023-02-01T02:57:13;101761.27;;;5.72;42.28
69219;BME280;56232;53.384;-2.732;2023-02-01T02:59:38;101765.51;;;5.49;42.39
69219;BME280;56232;53.384;-2.732;2023-02-01T03:02:02;101760.71;;;5.32;42.13
69219;BME280;56232;53.384;-2.732;2023-02-01T03:04:28;101761.95;;;5.69;42.26
69219;BME280;56232;53.384;-2.732;2023-02-01T03:06:54;101755.52;;;5.60;42.31
69219;BME280;56232;53.384;-2.732;2023-02-01T03:09:28;101749.80;;;5.03;42.11
69219;BME280;56232;53.384;-2.732;2023-02-01T03:11:47;101751.67;;;5.04;42.59
69219;BME280;56232;53.384;-2.732;2023-02-01T03:14:16;101742.21;;;5.47;42.50
69219;BME280;56232;53.384;-2.732;2023-02-01T03:16:40;101744.09;;;5.71;42.86
69219;BME280;56232;53.384;-2.732;2023-02-01T03:19:03;101750.05;;;5.12;42.79
69219;BME280;56232;53.384;-2.732;2023-02-01T03:21:30;101743.11;;;4.94;43.12
69219;BME280;56232;53.384;-2.732;2023-02-01T03:23:53;101748.58;;;4.79;43.21
69219;BME280;56232;53.384;-2.732;2023-02-01T03:26:20;101751.42;;;4.83;43.08
69219;BME280;56232;53.384;-2.732;2023-02-01T03:28:49;101738.26;;;4.76;42.97
69219;BME280;56232;53.384;-2.732;2023-02-01T03:31:09;101737.92;;;4.71;43.03
69219;BME280;56232;53.384;-2.732;2023-02-01T03:33:35;101745.41;;;4.62;42.84
69219;BME280;56232;53.384;-2.732;2023-02-01T03:36:08;101742.98;;;5.10;42.95
69219;BME280;56232;53.384;-2.732;2023-02-01T03:38:30;101734.40;;;4.54;42.79
69219;BME280;56232;53.384;-2.732;2023-02-01T03:40:53;101728.27;;;4.61;43.27
69219;BME280;56232;53.384;-2.732;2023-02-01T03:43:19;101731.28;;;4.97;43.19
69219;BME280;56232;53.384;-2.732;2023-02-01T03:45:44;101730.29;;;4.37;43.26
69219;BME280;56232;53.384;-2.732;2023-02-01T03:50:44;101728.46;;;4.80;43.43
69219;BME280;56232;53.384;-2.732;2023-02-01T03:53:03;101727.55;;;4.33;43.16
69219;BME280;56232;53.384;-2.732;2023-02-01T03:55:26;101736.59;;;4.32;43.11
69219;BME280;56232;53.384;-2.732;2023-02-01T03:58:01;101735.21;;;4.44;43.11
69219;BME280;56232;53.384;-2.732;2023-02-01T04:00:19;101732.43;;;4.86;43.31
69219;BME280;56232;53.384;-2.732;2023-02-01T04:02:42;101734.61;;;5.46;42.97
69219;BME280;56232;53.384;-2.732;2023-02-01T04:05:08;101728.50;;;4.90;43.24
69219;BME280;56232;53.384;-2.732;2023-02-01T04:07:38;101732.93;;;4.49;43.07
69219;BME280;56232;53.384;-2.732;2023-02-01T04:09:58;101734.02;;;4.60;43.08
69219;BME280;56232;53.384;-2.732;2023-02-01T04:12:24;101733.67;;;4.69;43.00
69219;BME280;56232;53.384;-2.732;2023-02-01T04:14:55;101734.76;;;4.80;43.13
69219;BME280;56232;53.384;-2.732;2023-02-01T04:17:16;101735.17;;;4.93;42.88
69219;BME280;56232;53.384;-2.732;2023-02-01T04:19:41;101729.06;;;5.38;42.74
69219;BME280;56232;53.384;-2.732;2023-02-01T04:22:07;101724.67;;;4.90;42.91
69219;BME280;56232;53.384;-2.732;2023-02-01T04:24:33;101729.80;;;4.93;42.73
69219;BME280;56232;53.384;-2.732;2023-02-01T04:26:58;101736.70;;;4.95;42.90
69219;BME280;56232;53.384;-2.732;2023-02-01T04:29:24;101732.69;;;4.98;42.88
69219;BME280;56232;53.384;-2.732;2023-02-01T04:31:50;101729.71;;;4.45;42.87
69219;BME280;56232;53.384;-2.732;2023-02-01T04:34:16;101728.44;;;5.50;43.00
69219;BME280;56232;53.384;-2.732;2023-02-01T04:36:41;101733.43;;;4.96;42.59
69219;BME280;56232;53.384;-2.732;2023-02-01T04:39:08;101723.86;;;5.10;42.58
69219;BME280;56232;53.384;-2.732;2023-02-01T04:41:32;101729.30;;;5.05;42.90
69219;BME280;56232;53.384;-2.732;2023-02-01T04:43:58;101721.55;;;5.46;43.04
69219;BME280;56232;53.384;-2.732;2023-02-01T04:46:24;101735.40;;;4.72;43.23
69219;BME280;56232;53.384;-2.732;2023-02-01T04:48:49;101725.19;;;4.66;43.37
69219;BME280;56232;53.384;-2.732;2023-02-01T04:51:15;101729.27;;;4.75;43.16
69219;BME280;56232;53.384;-2.732;2023-02-01T04:53:41;101738.92;;;4.76;43.13
69219;BME280;56232;53.384;-2.732;2023-02-01T04:56:07;101742.32;;;4.96;42.96
69219;BME280;56232;53.384;-2.732;2023-02-01T04:58:32;101737.38;;;4.95;43.02
69219;BME280;56232;53.384;-2.732;2023-02-01T05:00:58;101738.22;;;5.12;42.80
69219;BME280;56232;53.384;-2.732;2023-02-01T05:03:23;101745.49;;;5.10;42.80
69219;BME280;56232;53.384;-2.732;2023-02-01T05:05:49;101742.50;;;5.17;42.97
69219;BME280;56232;53.384;-2.732;2023-02-01T05:08:15;101745.09;;;4.65;42.68
69219;BME280;56232;53.384;-2.732;2023-02-01T05:10:40;101753.04;;;5.33;42.95
69219;BME280;56232;53.384;-2.732;2023-02-01T05:13:07;101748.30;;;5.51;42.62
69219;BME280;56232;53.384;-2.732;2023-02-01T05:15:31;101749.28;;;5.05;42.57
69219;BME280;56232;53.384;-2.732;2023-02-01T05:18:02;101749.47;;;6.07;42.14
69219;BME280;56232;53.384;-2.732;2023-02-01T05:20:22;101743.30;;;6.24;41.95
69219;BME280;56232;53.384;-2.732;2023-02-01T05:22:48;101731.89;;;5.29;42.29
69219;BME280;56232;53.384;-2.732;2023-02-01T05:25:14;101743.32;;;5.90;41.85
69219;BME280;56232;53.384;-2.732;2023-02-01T05:27:39;101738.12;;;6.29;41.70
69219;BME280;56232;53.384;-2.732;2023-02-01T05:30:06;101742.01;;;6.16;42.15
69219;BME280;56232;53.384;-2.732;2023-02-01T05:32:30;101745.41;;;5.45;42.82
69219;BME280;56232;53.384;-2.732;2023-02-01T05:34:56;101751.04;;;5.94;42.60
69219;BME280;56232;53.384;-2.732;2023-02-01T05:37:22;101747.38;;;6.06;42.48
69219;BME280;56232;53.384;-2.732;2023-02-01T05:39:47;101743.34;;;5.52;42.69
69219;BME280;56232;53.384;-2.732;2023-02-01T05:42:12;101737.05;;;5.46;42.57
69219;BME280;56232;53.384;-2.732;2023-02-01T05:44:38;101728.21;;;5.47;42.57
69219;BME280;56232;53.384;-2.732;2023-02-01T05:47:04;101726.07;;;5.60;42.65
69219;BME280;56232;53.384;-2.732;2023-02-01T05:49:29;101728.63;;;6.32;42.63
69219;BME280;56232;53.384;-2.732;2023-02-01T05:52:00;101731.43;;;5.51;42.38
69219;BME280;56232;53.384;-2.732;2023-02-01T05:54:21;101727.41;;;6.01;42.30
69219;BME280;56232;53.384;-2.732;2023-02-01T05:56:45;101730.16;;;6.09;42.28
69219;BME280;56232;53.384;-2.732;2023-02-01T05:59:11;101715.43;;;5.67;41.82
69219;BME280;56232;53.384;-2.732;2023-02-01T06:01:37;101722.96;;;6.17;42.02
69219;BME280;56232;53.384;-2.732;2023-02-01T06:04:02;101725.37;;;5.72;42.03
69219;BME280;56232;53.384;-2.732;2023-02-01T06:06:28;101733.15;;;6.30;41.84
69219;BME280;56232;53.384;-2.732;2023-02-01T06:08:59;101729.68;;;5.54;41.97
69219;BME280;56232;53.384;-2.732;2023-02-01T06:11:20;101730.96;;;6.45;42.19
69219;BME280;56232;53.384;-2.732;2023-02-01T06:13:44;101729.62;;;6.18;41.56
69219;BME280;56232;53.384;-2.732;2023-02-01T06:16:10;101726.67;;;6.34;41.28
69219;BME280;56232;53.384;-2.732;2023-02-01T06:18:36;101728.05;;;5.93;41.37
69219;BME280;56232;53.384;-2.732;2023-02-01T06:21:02;101733.58;;;6.54;41.41
69219;BME280;56232;53.384;-2.732;2023-02-01T06:23:27;101728.95;;;6.82;41.20
69219;BME280;56232;53.384;-2.732;2023-02-01T06:25:57;101732.69;;;6.95;40.99
69219;BME280;56232;53.384;-2.732;2023-02-01T06:28:18;101735.94;;;6.46;41.08
69219;BME280;56232;53.384;-2.732;2023-02-01T06:30:43;101732.65;;;6.27;41.01
69219;BME280;56232;53.384;-2.732;2023-02-01T06:33:09;101743.97;;;6.79;40.69
69219;BME280;56232;53.384;-2.732;2023-02-01T06:35:35;101735.49;;;6.25;41.27
69219;BME280;56232;53.384;-2.732;2023-02-01T06:38:00;101730.11;;;6.61;41.44
69219;BME280;56232;53.384;-2.732;2023-02-01T06:40:26;101727.49;;;7.13;41.54
69219;BME280;56232;53.384;-2.732;2023-02-01T06:42:52;101719.60;;;6.65;41.81
69219;BME280;56232;53.384;-2.732;2023-02-01T06:45:17;101701.25;;;6.76;41.27
69219;BME280;56232;53.384;-2.732;2023-02-01T06:47:48;101722.54;;;6.64;41.15
69219;BME280;56232;53.384;-2.732;2023-02-01T06:50:10;101732.71;;;6.61;41.36
69219;BME280;56232;53.384;-2.732;2023-02-01T06:52:35;101719.82;;;6.66;41.39
69219;BME280;56232;53.384;-2.732;2023-02-01T06:55:00;101731.22;;;6.76;41.21
69219;BME280;56232;53.384;-2.732;2023-02-01T06:57:26;101728.44;;;7.30;40.99
69219;BME280;56232;53.384;-2.732;2023-02-01T06:59:52;101746.14;;;6.80;40.88
69219;BME280;56232;53.384;-2.732;2023-02-01T07:02:17;101740.46;;;6.81;41.20
69219;BME280;56232;53.384;-2.732;2023-02-01T07:04:43;101733.41;;;6.45;40.76
69219;BME280;56232;53.384;-2.732;2023-02-01T07:07:09;101723.90;;;6.45;41.15
69219;BME280;56232;53.384;-2.732;2023-02-01T07:09:34;101718.29;;;6.42;41.07
69219;BME280;56232;53.384;-2.732;2023-02-01T07:12:06;101727.55;;;6.84;41.32
69219;BME280;56232;53.384;-2.732;2023-02-01T07:14:25;101731.50;;;6.62;41.43
69219;BME280;56232;53.384;-2.732;2023-02-01T07:16:51;101730.30;;;6.60;41.62
69219;BME280;56232;53.384;-2.732;2023-02-01T07:19:17;101725.55;;;6.65;41.60
69219;BME280;56232;53.384;-2.732;2023-02-01T07:21:42;101727.36;;;5.64;41.69
69219;BME280;56232;53.384;-2.732;2023-02-01T07:24:08;101729.58;;;6.26;40.88
69219;BME280;56232;53.384;-2.732;2023-02-01T07:26:33;101729.89;;;6.63;41.79
69219;BME280;56232;53.384;-2.732;2023-02-01T07:28:59;101737.56;;;6.33;42.17
69219;BME280;56232;53.384;-2.732;2023-02-01T07:31:25;101740.79;;;6.37;42.46
69219;BME280;56232;53.384;-2.732;2023-02-01T07:33:55;101732.20;;;6.37;42.05
69219;BME280;56232;53.384;-2.732;2023-02-01T07:36:17;101738.46;;;6.41;42.36
69219;BME280;56232;53.384;-2.732;2023-02-01T07:38:42;101733.43;;;6.74;42.11
69219;BME280;56232;53.384;-2.732;2023-02-01T07:41:08;101737.53;;;6.85;41.66
69219;BME280;56232;53.384;-2.732;2023-02-01T07:43:33;101736.94;;;6.35;42.36
69219;BME280;56232;53.384;-2.732;2023-02-01T07:45:59;101744.16;;;6.56;41.71
69219;BME280;56232;53.384;-2.732;2023-02-01T07:48:25;101733.71;;;5.51;41.42
69219;BME280;56232;53.384;-2.732;2023-02-01T07:50:58;101735.28;;;6.61;42.29
69219;BME280;56232;53.384;-2.732;2023-02-01T07:53:15;101733.92;;;6.60;41.41
69219;BME280;56232;53.384;-2.732;2023-02-01T07:55:41;101729.58;;;6.89;41.92
69219;BME280;56232;53.384;-2.732;2023-02-01T07:58:06;101731.04;;;6.41;41.80
69219;BME280;56232;53.384;-2.732;2023-02-01T08:00:37;101722.18;;;6.96;41.48
69219;BME280;56232;53.384;-2.732;2023-02-01T08:02:57;101728.42;;;6.53;41.89
69219;BME280;56232;53.384;-2.732;2023-02-01T08:05:23;101735.57;;;6.65;41.88
69219;BME280;56232;53.384;-2.732;2023-02-01T08:07:49;101732.53;;;6.15;41.83
69219;BME280;56232;53.384;-2.732;2023-02-01T08:10:14;101740.18;;;7.47;41.74
69219;BME280;56232;53.384;-2.732;2023-02-01T08:12:40;101735.30;;;6.39;41.86
69219;BME280;56232;53.384;-2.732;2023-02-01T08:15:11;101724.48;;;6.92;41.95
69219;BME280;56232;53.384;-2.732;2023-02-01T08:17:31;101737.24;;;6.87;41.68
69219;BME280;56232;53.384;-2.732;2023-02-01T08:19:56;101746.99;;;6.37;41.87
69219;BME280;56232;53.384;-2.732;2023-02-01T08:22:31;101737.58;;;6.92;41.95
69219;BME280;56232;53.384;-2.732;2023-02-01T08:24:48;101743.14;;;7.04;41.71
69219;BME280;56232;53.384;-2.732;2023-02-01T08:27:13;101730.98;;;7.19;41.41
69219;BME280;56232;53.384;-2.732;2023-02-01T08:29:39;101735.26;;;7.28;41.53
69219;BME280;56232;53.384;-2.732;2023-02-01T08:32:04;101732.54;;;6.50;41.77
69219;BME280;56232;53.384;-2.732;2023-02-01T08:34:34;101733.25;;;5.94;41.72
69219;BME280;56232;53.384;-2.732;2023-02-01T08:36:54;101730.80;;;6.59;42.11
69219;BME280;56232;53.384;-2.732;2023-02-01T08:39:21;101737.22;;;7.10;41.89
69219;BME280;56232;53.384;-2.732;2023-02-01T08:41:45;101729.99;;;7.24;41.80
69219;BME280;56232;53.384;-2.732;2023-02-01T08:44:11;101741.88;;;7.49;41.59
69219;BME280;56232;53.384;-2.732;2023-02-01T08:46:37;101740.90;;;6.61;41.39
69219;BME280;56232;53.384;-2.732;2023-02-01T08:49:02;101730.09;;;7.23;40.75
69219;BME280;56232;53.384;-2.732;2023-02-01T08:51:28;101725.18;;;7.20;41.33
69219;BME280;56232;53.384;-2.732;2023-02-01T08:53:54;101726.67;;;6.55;41.63
69219;BME280;56232;53.384;-2.732;2023-02-01T08:56:24;101724.66;;;7.38;41.50
69219;BME280;56232;53.384;-2.732;2023-02-01T08:58:50;101729.73;;;6.71;41.57
69219;BME280;56232;53.384;-2.732;2023-02-01T09:01:12;101727.04;;;7.16;42.08
69219;BME280;56232;53.384;-2.732;2023-02-01T09:03:41;101734.37;;;6.99;41.61
69219;BME280;56232;53.384;-2.732;2023-02-01T09:06:02;101739.15;;;6.55;41.61
69219;BME280;56232;53.384;-2.732;2023-02-01T09:08:27;101729.71;;;7.32;41.55
69219;BME280;56232;53.384;-2.732;2023-02-01T09:10:53;101726.27;;;7.45;41.58
69219;BME280;56232;53.384;-2.732;2023-02-01T09:13:19;101710.48;;;6.74;41.51
69219;BME280;56232;53.384;-2.732;2023-02-01T09:15:44;101714.23;;;7.40;41.88
69219;BME280;56232;53.384;-2.732;2023-02-01T09:18:09;101714.99;;;7.70;41.32
69219;BME280;56232;53.384;-2.732;2023-02-01T09:20:36;101708.00;;;7.42;41.13
69219;BME280;56232;53.384;-2.732;2023-02-01T09:23:00;101714.82;;;7.86;40.46
69219;BME280;56232;53.384;-2.732;2023-02-01T09:25:26;101725.46;;;7.98;40.08
69219;BME280;56232;53.384;-2.732;2023-02-01T09:27:51;101716.14;;;7.87;40.48
69219;BME280;56232;53.384;-2.732;2023-02-01T09:30:17;101714.60;;;7.56;40.85
69219;BME280;56232;53.384;-2.732;2023-02-01T09:32:42;101719.86;;;7.37;41.82
69219;BME280;56232;53.384;-2.732;2023-02-01T09:35:08;101733.44;;;7.75;40.90
69219;BME280;56232;53.384;-2.732;2023-02-01T09:37:33;101729.15;;;8.96;40.99
69219;BME280;56232;53.384;-2.732;2023-02-01T09:39:58;101729.22;;;7.81;40.83
69219;BME280;56232;53.384;-2.732;2023-02-01T09:42:39;101730.28;;;8.28;41.04
69219;BME280;56232;53.384;-2.732;2023-02-01T09:44:58;101727.67;;;8.58;40.41
69219;BME280;56232;53.384;-2.732;2023-02-01T09:47:16;101721.69;;;8.54;39.91
69219;BME280;56232;53.384;-2.732;2023-02-01T09:49:47;101729.31;;;9.25;40.04
69219;BME280;56232;53.384;-2.732;2023-02-01T09:52:07;101715.75;;;9.70;39.62
69219;BME280;56232;53.384;-2.732;2023-02-01T09:54:39;101728.23;;;10.16;39.82
69219;BME280;56232;53.384;-2.732;2023-02-01T09:57:00;101730.10;;;9.03;39.68
69219;BME280;56232;53.384;-2.732;2023-02-01T09:59:29;101726.44;;;9.21;40.09
69219;BME280;56232;53.384;-2.732;2023-02-01T10:01:47;101733.20;;;9.00;39.60
69219;BME280;56232;53.384;-2.732;2023-02-01T10:04:14;101738.84;;;8.60;40.73
69219;BME280;56232;53.384;-2.732;2023-02-01T10:06:47;101734.29;;;8.63;40.59
69219;BME280;56232;53.384;-2.732;2023-02-01T10:09:14;101743.60;;;9.12;39.94
69219;BME280;56232;53.384;-2.732;2023-02-01T10:11:39;101742.59;;;9.12;39.69
69219;BME280;56232;53.384;-2.732;2023-02-01T10:14:02;101737.75;;;8.72;40.56
69219;BME280;56232;53.384;-2.732;2023-02-01T10:16:30;101741.31;;;9.60;40.24
69219;BME280;56232;53.384;-2.732;2023-02-01T10:18:54;101742.78;;;9.29;40.81
69219;BME280;56232;53.384;-2.732;2023-02-01T10:21:22;101744.89;;;8.56;40.54
69219;BME280;56232;53.384;-2.732;2023-02-01T10:23:53;101747.07;;;8.12;40.64
69219;BME280;56232;53.384;-2.732;2023-02-01T10:26:10;101752.24;;;9.31;40.19
69219;BME280;56232;53.384;-2.732;2023-02-01T10:28:30;101768.28;;;8.99;40.73
69219;BME280;56232;53.384;-2.732;2023-02-01T10:30:58;101760.85;;;8.70;40.03
69219;BME280;56232;53.384;-2.732;2023-02-01T10:33:24;101764.33;;;9.30;39.63
69219;BME280;56232;53.384;-2.732;2023-02-01T10:35:46;101777.05;;;9.75;40.27
69219;BME280;56232;53.384;-2.732;2023-02-01T10:38:25;101766.59;;;10.41;39.89
69219;BME280;56232;53.384;-2.732;2023-02-01T10:40:37;101775.26;;;10.03;40.23
69219;BME280;56232;53.384;-2.732;2023-02-01T10:43:02;101777.89;;;10.12;40.08
69219;BME280;56232;53.384;-2.732;2023-02-01T10:45:28;101779.98;;;9.65;40.28
69219;BME280;56232;53.384;-2.732;2023-02-01T10:47:55;101781.40;;;9.75;39.71
69219;BME280;56232;53.384;-2.732;2023-02-01T10:50:28;101781.78;;;9.24;40.29
69219;BME280;56232;53.384;-2.732;2023-02-01T10:52:46;101784.86;;;9.95;40.58
69219;BME280;56232;53.384;-2.732;2023-02-01T10:57:34;101788.60;;;9.30;40.85
69219;BME280;56232;53.384;-2.732;2023-02-01T11:00:03;101783.79;;;10.32;40.62
69219;BME280;56232;53.384;-2.732;2023-02-01T11:02:27;101788.44;;;10.22;40.75
69219;BME280;56232;53.384;-2.732;2023-02-01T11:05:00;101795.55;;;9.90;40.94
69219;BME280;56232;53.384;-2.732;2023-02-01T11:07:23;101791.93;;;8.81;41.14
69219;BME280;56232;53.384;-2.732;2023-02-01T11:09:48;101789.06;;;8.75;41.72
69219;BME280;56232;53.384;-2.732;2023-02-01T11:14:37;101798.04;;;10.01;41.07
69219;BME280;56232;53.384;-2.732;2023-02-01T11:17:00;101803.01;;;9.98;40.64
69219;BME280;56232;53.384;-2.732;2023-02-01T11:19:24;101791.04;;;9.55;40.99
69219;BME280;56232;53.384;-2.732;2023-02-01T11:21:50;101797.31;;;9.59;41.23
69219;BME280;56232;53.384;-2.732;2023-02-01T11:24:23;101789.12;;;9.62;41.44
69219;BME280;56232;53.384;-2.732;2023-02-01T11:26:40;101783.36;;;9.85;40.99
69219;BME280;56232;53.384;-2.732;2023-02-01T11:29:11;101774.01;;;9.88;40.20
69219;BME280;56232;53.384;-2.732;2023-02-01T11:31:33;101774.27;;;10.14;40.60
69219;BME280;56232;53.384;-2.732;2023-02-01T11:34:00;101774.85;;;10.30;40.18
69219;BME280;56232;53.384;-2.732;2023-02-01T11:36:24;101777.65;;;10.80;39.87
69219;BME280;56232;53.384;-2.732;2023-02-01T11:38:53;101782.36;;;9.72;40.14
69219;BME280;56232;53.384;-2.732;2023-02-01T11:41:14;101771.30;;;10.30;40.13
69219;BME280;56232;53.384;-2.732;2023-02-01T11:43:51;101785.42;;;10.79;40.36
69219;BME280;56232;53.384;-2.732;2023-02-01T11:46:16;101784.84;;;9.64;39.49
69219;BME280;56232;53.384;-2.732;2023-02-01T11:48:35;101785.35;;;10.29;40.15
69219;BME280;56232;53.384;-2.732;2023-02-01T11:51:07;101786.51;;;10.71;40.34
69219;BME280;56232;53.384;-2.732;2023-02-01T11:53:31;101784.65;;;10.68;40.68
69219;BME280;56232;53.384;-2.732;2023-02-01T11:55:55;101794.69;;;10.69;40.52
69219;BME280;56232;53.384;-2.732;2023-02-01T11:58:31;101789.45;;;9.40;40.32
69219;BME280;56232;53.384;-2.732;2023-02-01T12:00:51;101799.16;;;9.72;40.84
69219;BME280;56232;53.384;-2.732;2023-02-01T12:03:17;101784.41;;;9.65;40.89
69219;BME280;56232;53.384;-2.732;2023-02-01T12:05:34;101784.05;;;10.34;40.84
69219;BME280;56232;53.384;-2.732;2023-02-01T12:08:04;101777.18;;;9.79;40.40
69219;BME280;56232;53.384;-2.732;2023-02-01T12:10:28;101787.87;;;9.63;40.97
69219;BME280;56232;53.384;-2.732;2023-02-01T12:12:51;101785.40;;;9.46;40.39
69219;BME280;56232;53.384;-2.732;2023-02-01T12:15:22;101787.79;;;10.84;40.69
69219;BME280;56232;53.384;-2.732;2023-02-01T12:17:46;101778.60;;;10.17;40.75
69219;BME280;56232;53.384;-2.732;2023-02-01T12:20:11;101783.40;;;10.28;40.65
69219;BME280;56232;53.384;-2.732;2023-02-01T12:22:36;101789.11;;;10.85;40.28
69219;BME280;56232;53.384;-2.732;2023-02-01T12:27:38;101786.56;;;9.77;40.88
69219;BME280;56232;53.384;-2.732;2023-02-01T12:29:56;101790.10;;;10.58;40.88
69219;BME280;56232;53.384;-2.732;2023-02-01T12:32:19;101778.51;;;10.13;41.32
69219;BME280;56232;53.384;-2.732;2023-02-01T12:37:07;101784.58;;;8.97;41.47
69219;BME280;56232;53.384;-2.732;2023-02-01T12:39:31;101786.07;;;9.55;41.48
69219;BME280;56232;53.384;-2.732;2023-02-01T12:41:57;101776.96;;;9.63;40.99
69219;BME280;56232;53.384;-2.732;2023-02-01T12:44:26;101769.38;;;9.93;41.00
69219;BME280;56232;53.384;-2.732;2023-02-01T12:46:45;101764.35;;;9.59;40.35
69219;BME280;56232;53.384;-2.732;2023-02-01T12:49:11;101764.65;;;10.15;40.70
69219;BME280;56232;53.384;-2.732;2023-02-01T12:51:36;101768.28;;;9.73;40.80
69219;BME280;56232;53.384;-2.732;2023-02-01T12:54:03;101747.43;;;10.07;40.73
69219;BME280;56232;53.384;-2.732;2023-02-01T12:56:35;101748.02;;;10.47;40.93
69219;BME280;56232;53.384;-2.732;2023-02-01T12:58:51;101746.90;;;10.59;40.58